Time;durP1;ratioP1;P1;durP2;ratioP2;P2;SDS_P1;SDS_P2;PMS_P1;PMS_P2;Temp;Humidity;BMP_temperature;BMP_pressure;BME280_temperature;BME280_humidity;BME280_pressure;Samples;Min_cycle;Max_cycle;Signal;HPM_P1;HPM_P2
2023/03/18 00:02:23;;;;;;;14.83;5.50;;;;;;;10.06;100.00;100200.19;7395071;19;20400;-36
2023/03/18 00:04:55;;;;;;;10.17;4.90;;;;;;;10.05;100.00;100194.13;7392286;19;20528;-36
2023/03/18 00:07:26;;;;;;;9.00;4.70;;;;;;;10.00;100.00;100193.97;7395346;19;20395;-37
2023/03/18 00:09:55;;;;;;;9.67;4.07;;;;;;;9.93;100.00;100194.59;7391415;19;20451;-36
2023/03/18 00:12:25;;;;;;;9.00;3.90;;;;;;;9.89;100.00;100189.28;7394996;19;20403;-38
2023/03/18 00:14:56;;;;;;;8.17;3.93;;;;;;;9.82;100.00;100190.75;7389562;19;20443;-36
2023/03/18 00:17:26;;;;;;;8.47;4.17;;;;;;;9.90;100.00;100179.00;7395063;19;20787;-36
2023/03/18 00:20:04;;;;;;;7.43;3.97;;;;;;;9.97;100.00;100182.69;7391110;19;20465;-38
2023/03/18 00:22:34;;;;;;;8.60;3.70;;;;;;;9.93;100.00;100191.13;7394034;19;20432;-37
2023/03/18 00:25:05;;;;;;;9.33;4.03;;;;;;;9.82;100.00;100190.75;7392482;19;20435;-36
2023/03/18 00:27:35;;;;;;;6.80;3.63;;;;;;;9.85;100.00;100186.59;7394839;19;20399;-36
2023/03/18 00:30:07;;;;;;;9.03;4.30;;;;;;;9.90;100.00;100183.31;7391144;19;21072;-36
2023/03/18 00:32:40;;;;;;;8.07;4.53;;;;;;;9.94;100.00;100177.44;7395212;19;20398;-43
2023/03/18 00:35:12;;;;;;;10.93;3.60;;;;;;;9.81;100.00;100177.00;7392025;19;20439;-37
2023/03/18 00:37:42;;;;;;;7.73;4.07;;;;;;;9.80;100.00;100182.97;7394724;19;20403;-37
2023/03/18 00:40:19;;;;;;;10.40;4.30;;;;;;;9.85;100.00;100186.59;7390470;19;20459;-37
2023/03/18 00:42:56;;;;;;;7.83;3.70;;;;;;;9.86;100.00;100182.31;7394294;19;20402;-39
2023/03/18 00:45:26;;;;;;;6.83;3.80;;;;;;;9.81;100.00;100174.44;7391348;19;20427;-36
2023/03/18 00:47:55;;;;;;;6.90;3.70;;;;;;;9.80;100.00;100171.78;7394495;19;20414;-39
2023/03/18 00:50:27;;;;;;;9.67;5.03;;;;;;;9.83;100.00;100169.31;7390274;19;20462;-36
2023/03/18 00:52:56;;;;;;;6.43;3.43;;;;;;;9.82;100.00;100171.03;7394755;19;20424;-36
2023/03/18 00:55:26;;;;;;;10.47;3.93;;;;;;;9.83;100.00;100175.34;7391428;19;20439;-37
2023/03/18 00:57:56;;;;;;;9.80;4.33;;;;;;;9.85;100.00;100165.97;7394161;19;20407;-39
2023/03/18 01:00:27;;;;;;;11.00;4.30;;;;;;;9.78;100.00;100171.72;7389993;19;20475;-37
2023/03/18 01:02:58;;;;;;;7.17;3.53;;;;;;;9.84;100.00;100166.78;7394455;19;20447;-36
2023/03/18 01:05:30;;;;;;;6.50;3.83;;;;;;;9.85;100.00;100167.69;7391340;19;20438;-38
2023/03/18 01:08:00;;;;;;;8.57;4.00;;;;;;;9.85;100.00;100176.28;7393714;19;21053;-36
2023/03/18 01:10:30;;;;;;;10.27;3.47;;;;;;;9.80;100.00;100177.81;7390533;19;20451;-37
2023/03/18 01:13:00;;;;;;;8.83;4.17;;;;;;;9.69;100.00;100177.44;7394540;19;20396;-37
2023/03/18 01:15:29;;;;;;;8.90;4.80;;;;;;;9.75;100.00;100178.47;7391085;19;20455;-37
2023/03/18 01:17:59;;;;;;;9.97;3.97;;;;;;;9.67;100.00;100171.34;7393454;19;20400;-36
2023/03/18 01:20:31;;;;;;;7.60;4.30;;;;;;;9.79;100.00;100177.78;7390016;19;20478;-37
2023/03/18 01:23:02;;;;;;;8.20;4.27;;;;;;;9.82;100.00;100171.03;7394070;19;20408;-36
2023/03/18 01:25:32;;;;;;;8.60;4.53;;;;;;;9.79;100.00;100165.75;7390398;19;20811;-35
2023/03/18 01:28:01;;;;;;;7.40;4.00;;;;;;;9.86;100.00;100172.88;7400972;19;20408;-37
2023/03/18 01:30:33;;;;;;;7.47;3.93;;;;;;;10.01;100.00;100161.38;7397184;19;20445;-38
2023/03/18 01:33:03;;;;;;;9.10;4.07;;;;;;;9.99;100.00;100161.31;7402210;19;20431;-36
2023/03/18 01:35:35;;;;;;;8.40;3.80;;;;;;;9.81;100.00;100169.28;7399785;19;20447;-36
2023/03/18 01:38:06;;;;;;;7.87;3.70;;;;;;;9.71;100.00;100168.03;7401030;19;20407;-35
2023/03/18 01:40:39;;;;;;;10.10;4.20;;;;;;;9.77;100.00;100172.56;7398631;19;20471;-36
2023/03/18 01:43:16;;;;;;;8.87;3.80;;;;;;;9.70;100.00;100173.16;7396504;19;20388;-36
2023/03/18 01:45:50;;;;;;;7.13;3.53;;;;;;;9.58;100.00;100166.75;7393829;19;20395;-35
2023/03/18 01:48:22;;;;;;;7.57;4.47;;;;;;;9.74;100.00;100167.28;7396903;19;20487;-36
2023/03/18 01:50:58;;;;;;;10.70;4.47;;;;;;;9.97;100.00;100160.38;7398354;19;20442;-37
2023/03/18 01:53:30;;;;;;;11.27;4.50;;;;;;;9.92;100.00;100161.03;7396578;19;20449;-36
2023/03/18 01:56:01;;;;;;;6.67;3.70;;;;;;;9.91;100.00;100151.56;7401028;19;20752;-37
2023/03/18 01:58:33;;;;;;;11.60;4.10;;;;;;;9.70;100.00;100156.00;7396949;19;20411;-38
2023/03/18 02:01:06;;;;;;;7.80;3.70;;;;;;;9.77;100.00;100162.25;7398218;19;20806;-37
2023/03/18 02:03:36;;;;;;;7.73;4.03;;;;;;;9.80;100.00;100167.50;7392255;19;20415;-36
2023/03/18 02:06:09;;;;;;;6.97;3.33;;;;;;;9.80;100.00;100162.34;7400410;19;20423;-35
2023/03/18 02:08:39;;;;;;;8.20;3.80;;;;;;;9.68;100.00;100175.69;7394846;19;20438;-37
2023/03/18 02:11:10;;;;;;;8.87;4.27;;;;;;;9.71;100.00;100172.34;7396918;19;20789;-37
2023/03/18 02:13:42;;;;;;;9.90;4.10;;;;;;;9.56;100.00;100177.81;7395277;19;20874;-37
2023/03/18 02:16:18;;;;;;;6.67;4.20;;;;;;;9.38;100.00;100178.03;7398023;19;20400;-38
2023/03/18 02:18:50;;;;;;;8.70;4.03;;;;;;;9.25;100.00;100176.66;7395485;19;20419;-37
2023/03/18 02:21:37;;;;;;;8.77;3.90;;;;;;;9.23;100.00;100183.47;7396875;19;20443;-36
2023/03/18 02:24:13;;;;;;;7.90;3.77;;;;;;;9.25;100.00;100187.84;7376410;19;20457;-36
2023/03/18 02:26:49;;;;;;;8.60;3.70;;;;;;;9.32;100.00;100194.97;7398934;19;20415;-37
2023/03/18 02:29:22;;;;;;;6.00;3.70;;;;;;;9.34;100.00;100195.06;7393696;19;20458;-36
2023/03/18 02:31:52;;;;;;;8.37;3.73;;;;;;;9.40;100.00;100191.81;7397015;19;20439;-35
2023/03/18 02:34:21;;;;;;;8.07;3.93;;;;;;;9.38;100.00;100196.91;7394708;19;20443;-39
2023/03/18 02:36:51;;;;;;;6.90;3.90;;;;;;;9.34;100.00;100201.88;7398854;19;20435;-38
2023/03/18 02:39:20;;;;;;;6.30;3.67;;;;;;;9.36;100.00;100210.53;7391687;19;20443;-36
2023/03/18 02:41:50;;;;;;;8.73;4.20;;;;;;;9.23;100.00;100210.06;7396721;19;20806;-36
2023/03/18 02:44:22;;;;;;;8.70;3.70;;;;;;;9.21;100.00;100222.00;7393007;19;20442;-36
2023/03/18 02:46:55;;;;;;;9.07;3.70;;;;;;;9.20;100.00;100230.56;7398838;19;20744;-38
2023/03/18 02:49:26;;;;;;;7.10;3.97;;;;;;;9.25;100.00;100217.84;7389710;19;20451;-36
2023/03/18 02:51:56;;;;;;;7.73;3.73;;;;;;;9.30;100.00;100222.38;7396655;19;20438;-38
2023/03/18 02:54:28;;;;;;;9.20;3.83;;;;;;;9.31;100.00;100213.84;7393849;19;20785;-37
2023/03/18 02:56:58;;;;;;;9.13;4.07;;;;;;;9.39;100.00;100228.69;7398925;19;20419;-37
2023/03/18 02:59:31;;;;;;;11.10;4.30;;;;;;;9.33;100.00;100216.44;7392752;19;20443;-38
2023/03/18 03:02:00;;;;;;;8.63;3.80;;;;;;;9.29;100.00;100215.44;7396552;19;20955;-37
2023/03/18 03:04:30;;;;;;;9.10;3.77;;;;;;;9.36;100.00;100221.72;7393565;19;20447;-37
2023/03/18 03:07:01;;;;;;;10.30;4.47;;;;;;;9.35;100.00;100219.09;7398595;19;20408;-35
2023/03/18 03:09:30;;;;;;;7.27;3.70;;;;;;;9.31;100.00;100221.56;7393326;19;20435;-39
2023/03/18 03:11:59;;;;;;;14.13;4.07;;;;;;;9.29;100.00;100223.16;7395933;19;20431;-37
2023/03/18 03:14:31;;;;;;;9.90;4.30;;;;;;;9.36;100.00;100236.28;7394187;19;20447;-35
2023/03/18 03:17:01;;;;;;;7.33;4.17;;;;;;;9.31;100.00;100244.72;7398171;19;20403;-37
2023/03/18 03:19:32;;;;;;;12.43;3.90;;;;;;;9.29;100.00;100241.19;7393052;19;20454;-37
2023/03/18 03:22:01;;;;;;;11.47;4.60;;;;;;;9.26;100.00;100251.38;7396196;19;20443;-37
2023/03/18 03:24:31;;;;;;;8.30;3.33;;;;;;;9.23;100.00;100261.53;7392851;19;20446;-39
2023/03/18 03:27:00;;;;;;;8.23;3.73;;;;;;;9.18;100.00;100263.09;7397733;19;20407;-36
2023/03/18 03:29:32;;;;;;;11.87;3.57;;;;;;;9.17;100.00;100275.06;7392318;19;20423;-38
2023/03/18 03:32:02;;;;;;;7.27;3.77;;;;;;;9.18;100.00;100293.97;7396318;19;20443;-37
2023/03/18 03:34:35;;;;;;;6.93;3.63;;;;;;;9.08;100.00;100307.28;7393204;19;20430;-36
2023/03/18 03:37:05;;;;;;;9.33;4.10;;;;;;;9.05;100.00;100329.50;7397535;19;20954;-35
2023/03/18 03:39:35;;;;;;;7.20;3.97;;;;;;;9.04;100.00;100335.44;7392314;19;20427;-36
2023/03/18 03:42:05;;;;;;;8.53;4.47;;;;;;;9.06;100.00;100348.38;7397432;19;20407;-36
2023/03/18 03:44:37;;;;;;;6.90;4.10;;;;;;;9.01;100.00;100353.34;7391133;19;20796;-36
2023/03/18 03:47:07;;;;;;;10.00;4.63;;;;;;;9.09;100.00;100356.25;7397278;19;20404;-36
2023/03/18 03:49:36;;;;;;;16.07;5.13;;;;;;;9.27;100.00;100360.38;7392096;19;20436;-37
2023/03/18 03:52:07;;;;;;;12.63;4.83;;;;;;;9.25;100.00;100346.56;7397378;19;20431;-36
2023/03/18 03:54:37;;;;;;;7.80;4.57;;;;;;;9.28;100.00;100347.56;7391592;19;20457;-39
2023/03/18 03:57:06;;;;;;;7.30;4.03;;;;;;;9.21;100.00;100350.72;7397219;19;20479;-37
2023/03/18 03:59:38;;;;;;;7.70;4.30;;;;;;;9.17;100.00;100359.13;7391037;19;20443;-36
2023/03/18 04:02:08;;;;;;;9.50;4.73;;;;;;;9.13;100.00;100367.53;7395465;19;20396;-38
2023/03/18 04:04:38;;;;;;;11.30;4.70;;;;;;;9.03;100.00;100381.72;7391746;19;21002;-39
2023/03/18 04:07:07;;;;;;;11.13;4.47;;;;;;;8.97;100.00;100400.34;7397080;19;20408;-36
2023/03/18 04:09:37;;;;;;;10.73;4.40;;;;;;;8.93;100.00;100410.44;7391237;19;20443;-36
2023/03/18 04:12:08;;;;;;;14.43;5.40;;;;;;;8.92;100.00;100417.28;7396544;19;20844;-36
2023/03/18 04:14:40;;;;;;;10.40;4.83;;;;;;;8.93;100.00;100428.47;7392701;19;20439;-38
2023/03/18 04:17:10;;;;;;;7.77;3.80;;;;;;;8.93;100.00;100439.63;7395215;19;20407;-37
2023/03/18 04:19:40;;;;;;;12.03;4.77;;;;;;;8.94;100.00;100443.06;7391237;19;20431;-36
2023/03/18 04:22:09;;;;;;;9.93;4.40;;;;;;;8.95;100.00;100461.16;7394541;19;20971;-36
2023/03/18 04:24:39;;;;;;;11.10;4.57;;;;;;;8.96;100.00;100457.78;7392548;19;21037;-36
2023/03/18 04:27:08;;;;;;;18.03;5.63;;;;;;;8.95;100.00;100468.88;7392926;19;20400;-35
2023/03/18 04:29:40;;;;;;;9.13;4.73;;;;;;;8.97;100.00;100467.25;7391844;19;20474;-37
2023/03/18 04:32:10;;;;;;;9.63;4.50;;;;;;;8.95;100.00;100471.47;7395008;19;20407;-37
2023/03/18 04:34:39;;;;;;;9.00;4.50;;;;;;;8.96;100.00;100478.34;7391468;19;20443;-37
2023/03/18 04:37:09;;;;;;;8.93;4.53;;;;;;;8.95;100.00;100486.91;7394852;19;20400;-37
2023/03/18 04:39:38;;;;;;;11.03;4.57;;;;;;;8.97;100.00;100474.97;7390774;19;20446;-36
2023/03/18 04:42:08;;;;;;;11.70;5.80;;;;;;;8.98;100.00;100481.88;7394098;19;20419;-36
2023/03/18 04:44:40;;;;;;;8.40;5.00;;;;;;;8.99;100.00;100468.22;7389950;19;20446;-37
2023/03/18 04:47:11;;;;;;;13.27;6.43;;;;;;;9.05;100.00;100478.78;7393928;19;20415;-36
2023/03/18 04:49:40;;;;;;;12.50;6.40;;;;;;;9.03;100.00;100475.22;7389981;19;21002;-36
2023/03/18 04:52:11;;;;;;;14.70;5.60;;;;;;;9.03;100.00;100474.38;7394266;19;20435;-37
2023/03/18 04:54:41;;;;;;;9.73;5.80;;;;;;;9.05;100.00;100478.78;7390865;19;20812;-37
2023/03/18 04:57:11;;;;;;;11.37;6.20;;;;;;;9.09;100.00;100478.88;7393712;19;20956;-36
2023/03/18 04:59:43;;;;;;;16.03;6.27;;;;;;;9.03;100.00;100480.38;7391212;19;20826;-36
2023/03/18 05:02:13;;;;;;;12.17;5.60;;;;;;;9.00;100.00;100500.84;7398324;19;20927;-37
2023/03/18 05:04:42;;;;;;;14.33;6.30;;;;;;;9.01;100.00;100517.16;7400284;19;20435;-36
2023/03/18 05:07:14;;;;;;;14.60;6.40;;;;;;;9.03;100.00;100521.56;7398679;19;20774;-36
2023/03/18 05:09:44;;;;;;;11.83;6.23;;;;;;;9.02;100.00;100524.94;7396820;19;20468;-37
2023/03/18 05:12:15;;;;;;;12.87;6.60;;;;;;;9.00;100.00;100531.72;7402208;19;20817;-38
2023/03/18 05:14:47;;;;;;;12.90;6.30;;;;;;;9.01;100.00;100543.78;7398177;19;21009;-36
2023/03/18 05:17:17;;;;;;;17.33;7.10;;;;;;;9.00;100.00;100559.13;7401141;19;20400;-37
2023/03/18 05:19:48;;;;;;;14.63;7.57;;;;;;;9.00;100.00;100567.75;7397055;19;20419;-36
2023/03/18 05:22:19;;;;;;;14.00;6.70;;;;;;;9.02;100.00;100566.13;7400211;19;20403;-37
2023/03/18 05:24:49;;;;;;;13.60;7.87;;;;;;;9.08;100.00;100556.91;7398040;19;20439;-37
2023/03/18 05:27:20;;;;;;;17.97;7.73;;;;;;;9.11;100.00;100549.31;7398304;19;20432;-36
2023/03/18 05:29:52;;;;;;;13.03;8.13;;;;;;;9.10;100.00;100573.31;7396886;19;20470;-36
2023/03/18 05:32:22;;;;;;;12.27;7.30;;;;;;;9.07;100.00;100568.91;7400586;19;20407;-35
2023/03/18 05:34:51;;;;;;;28.20;9.10;;;;;;;9.13;100.00;100570.88;7397904;19;20919;-36
2023/03/18 05:37:21;;;;;;;13.53;7.03;;;;;;;9.10;100.00;100583.59;7400383;19;20400;-37
2023/03/18 05:39:51;;;;;;;13.93;8.10;;;;;;;9.12;100.00;100577.72;7396284;19;20453;-38
2023/03/18 05:42:20;;;;;;;13.63;7.40;;;;;;;9.10;100.00;100589.63;7400467;19;20415;-37
2023/03/18 05:44:53;;;;;;;17.30;8.90;;;;;;;9.10;100.00;100592.22;7396136;19;20453;-36
2023/03/18 05:47:22;;;;;;;18.00;8.83;;;;;;;9.07;100.00;100593.78;7398391;19;20443;-37
2023/03/18 05:49:52;;;;;;;20.30;9.60;;;;;;;9.12;100.00;100589.72;7396355;19;20439;-36
2023/03/18 05:52:21;;;;;;;15.20;7.97;;;;;;;9.11;100.00;100598.22;7401303;19;20400;-36
2023/03/18 05:54:51;;;;;;;15.20;8.27;;;;;;;9.08;100.00;100611.84;7397227;19;20431;-37
2023/03/18 05:57:21;;;;;;;15.63;8.30;;;;;;;9.07;100.00;100611.78;7400090;19;20407;-35
2023/03/18 05:59:53;;;;;;;19.53;9.70;;;;;;;9.05;100.00;100622.00;7393122;19;20458;-35
2023/03/18 06:02:23;;;;;;;18.80;8.97;;;;;;;9.10;100.00;100620.53;7399579;19;20775;-36
2023/03/18 06:04:53;;;;;;;14.70;8.70;;;;;;;9.11;100.00;100634.25;7396943;19;20443;-39
2023/03/18 06:07:22;;;;;;;17.83;8.40;;;;;;;9.13;100.00;100630.94;7397950;19;20426;-37
2023/03/18 06:09:52;;;;;;;21.27;9.10;;;;;;;9.12;100.00;100638.63;7395496;19;20439;-37
2023/03/18 06:12:26;;;;;;;14.47;8.93;;;;;;;9.15;100.00;100649.03;7399141;19;20406;-37
2023/03/18 06:14:58;;;;;;;15.37;8.17;;;;;;;9.10;100.00;100658.25;7397110;19;20827;-36
2023/03/18 06:17:28;;;;;;;15.27;8.70;;;;;;;9.12;100.00;100665.22;7399641;19;20411;-36
2023/03/18 06:19:57;;;;;;;17.97;9.93;;;;;;;9.06;100.00;100672.66;7395704;19;20442;-37
2023/03/18 06:22:27;;;;;;;17.77;9.67;;;;;;;9.16;100.00;100671.38;7398523;19;20406;-37
2023/03/18 06:24:56;;;;;;;22.47;9.70;;;;;;;9.15;100.00;100674.78;7396157;19;20451;-36
2023/03/18 06:27:26;;;;;;;16.60;9.43;;;;;;;9.18;100.00;100674.94;7397354;19;20971;-37
2023/03/18 06:30:01;;;;;;;19.30;10.63;;;;;;;9.24;100.00;100680.38;7395761;19;20439;-38
2023/03/18 06:32:31;;;;;;;20.20;9.03;;;;;;;9.19;100.00;100671.56;7398716;19;20418;-37
2023/03/18 06:35:01;;;;;;;18.03;8.90;;;;;;;9.18;100.00;100675.81;7396183;19;20451;-37
2023/03/18 06:37:31;;;;;;;17.17;9.30;;;;;;;9.17;100.00;100679.19;7398721;19;20404;-37
2023/03/18 06:40:00;;;;;;;18.50;10.10;;;;;;;9.14;100.00;100675.59;7395519;19;20427;-37
2023/03/18 06:42:30;;;;;;;16.93;9.20;;;;;;;9.12;100.00;100674.66;7398839;19;20399;-37
2023/03/18 06:45:02;;;;;;;28.97;11.13;;;;;;;9.17;100.00;100675.72;7395493;19;20466;-36
2023/03/18 06:47:31;;;;;;;18.30;9.30;;;;;;;9.17;100.00;100680.88;7397782;19;20411;-38
2023/03/18 06:50:01;;;;;;;20.10;9.67;;;;;;;9.23;100.00;100680.28;7392103;19;20439;-37
2023/03/18 06:52:30;;;;;;;16.40;9.33;;;;;;;9.27;100.00;100680.50;7398102;19;20768;-36
2023/03/18 06:55:00;;;;;;;24.10;10.90;;;;;;;9.29;100.00;100684.00;7397683;19;20427;-36
2023/03/18 06:57:29;;;;;;;14.90;8.67;;;;;;;9.24;100.00;100685.53;7398003;19;20399;-37
2023/03/18 07:00:01;;;;;;;19.93;10.50;;;;;;;9.29;100.00;100688.31;7393577;19;20532;-37
2023/03/18 07:02:31;;;;;;;18.00;9.10;;;;;;;9.34;100.00;100689.41;7398272;19;20395;-37
2023/03/18 07:05:00;;;;;;;17.77;10.00;;;;;;;9.36;100.00;100684.28;7395764;19;20427;-37
2023/03/18 07:07:30;;;;;;;21.47;10.40;;;;;;;9.38;100.00;100691.28;7396588;19;20429;-36
2023/03/18 07:09:59;;;;;;;17.97;9.90;;;;;;;9.37;100.00;100692.09;7394183;19;20447;-36
2023/03/18 07:12:29;;;;;;;18.10;10.10;;;;;;;9.40;100.00;100686.22;7397653;19;20428;-36
2023/03/18 07:14:58;;;;;;;18.30;9.37;;;;;;;9.39;100.00;100700.75;7395162;19;20447;-37
2023/03/18 07:17:30;;;;;;;21.10;10.40;;;;;;;9.45;100.00;100700.19;7397959;19;20403;-36
2023/03/18 07:20:00;;;;;;;24.97;10.10;;;;;;;9.50;100.00;100709.00;7394487;19;20443;-39
2023/03/18 07:22:29;;;;;;;21.23;10.33;;;;;;;9.54;100.00;100707.44;7397564;19;20396;-37
2023/03/18 07:24:59;;;;;;;17.73;11.00;;;;;;;9.60;100.00;100710.28;7393308;19;20450;-36
2023/03/18 07:27:28;;;;;;;20.50;9.67;;;;;;;9.61;100.00;100714.63;7396372;19;20438;-37
2023/03/18 07:29:58;;;;;;;17.97;10.07;;;;;;;9.69;100.00;100704.69;7393523;19;20440;-37
2023/03/18 07:32:31;;;;;;;21.03;9.67;;;;;;;9.74;100.00;100703.16;7396968;19;20427;-36
2023/03/18 07:35:01;;;;;;;18.23;10.50;;;;;;;9.80;100.00;100697.41;7395212;19;20463;-37
2023/03/18 07:37:31;;;;;;;23.00;9.90;;;;;;;9.82;100.00;100699.25;7396840;19;20399;-38
2023/03/18 07:40:00;;;;;;;22.30;9.97;;;;;;;9.92;100.00;100695.38;7392887;19;20443;-37
2023/03/18 07:42:30;;;;;;;21.90;9.60;;;;;;;9.87;100.00;100683.97;7396650;19;20428;-37
2023/03/18 07:44:59;;;;;;;15.27;8.80;;;;;;;9.87;100.00;100691.72;7392926;19;20795;-37
2023/03/18 07:47:31;;;;;;;20.90;10.03;;;;;;;9.90;100.00;100693.53;7395520;19;20399;-37
2023/03/18 07:50:01;;;;;;;22.17;10.10;;;;;;;9.91;100.00;100693.63;7392603;19;20427;-37
2023/03/18 07:52:30;;;;;;;17.10;8.73;;;;;;;9.92;100.00;100682.50;7396101;19;20408;-37
2023/03/18 07:55:00;;;;;;;16.83;9.00;;;;;;;9.95;100.00;100676.59;7393452;19;20443;-36
2023/03/18 07:57:30;;;;;;;22.03;10.73;;;;;;;10.05;100.00;100672.72;7396415;19;20439;-37
2023/03/18 08:00:00;;;;;;;16.53;10.30;;;;;;;10.09;100.00;100674.56;7392278;19;20476;-36
2023/03/18 08:02:32;;;;;;;15.83;9.60;;;;;;;10.05;100.00;100681.31;7395271;19;20399;-37
2023/03/18 08:05:02;;;;;;;18.20;9.10;;;;;;;10.10;100.00;100676.38;7392227;19;20460;-37
2023/03/18 08:07:32;;;;;;;19.20;10.30;;;;;;;10.11;100.00;100678.97;7395278;19;20425;-35
2023/03/18 08:10:01;;;;;;;20.23;9.43;;;;;;;10.08;100.00;100673.72;7393196;19;20427;-37
2023/03/18 08:12:31;;;;;;;18.77;10.60;;;;;;;10.13;100.00;100674.78;7395574;19;20403;-35
2023/03/18 08:15:19;;;;;;;21.13;9.20;;;;;;;10.10;100.00;100668.63;7392880;19;20809;-35
2023/03/18 08:17:52;;;;;;;18.70;9.50;;;;;;;10.15;100.00;100661.94;7396236;19;20403;-36
2023/03/18 08:20:23;;;;;;;29.17;10.67;;;;;;;10.15;100.00;100664.53;7391987;19;20468;-37
2023/03/18 08:22:52;;;;;;;25.40;11.03;;;;;;;10.15;100.00;100668.81;7393117;19;20400;-37
2023/03/18 08:25:22;;;;;;;21.63;10.13;;;;;;;10.18;100.00;100677.56;7392664;19;20446;-36
2023/03/18 08:27:52;;;;;;;17.63;9.00;;;;;;;10.20;100.00;100667.31;7395335;19;20777;-36
2023/03/18 08:30:24;;;;;;;18.77;11.07;;;;;;;10.20;100.00;100677.63;7391565;19;20458;-36
2023/03/18 08:32:56;;;;;;;17.33;9.73;;;;;;;10.16;100.00;100670.56;7396273;19;20424;-40
2023/03/18 08:35:25;;;;;;;19.70;10.17;;;;;;;10.13;100.00;100674.78;7391258;19;20439;-38
2023/03/18 08:37:55;;;;;;;18.00;10.23;;;;;;;10.15;100.00;100677.41;7395539;19;20399;-35
2023/03/18 08:40:25;;;;;;;18.17;9.90;;;;;;;10.17;100.00;100683.53;7388597;19;20466;-37
2023/03/18 08:42:55;;;;;;;21.47;11.10;;;;;;;10.15;100.00;100694.59;7395651;19;20783;-37
2023/03/18 08:45:26;;;;;;;15.03;6.50;;;;;;;10.10;100.00;100692.69;7391307;19;20798;-36
2023/03/18 08:47:58;;;;;;;20.57;9.70;;;;;;;10.12;100.00;100696.22;7394354;19;20400;-39
2023/03/18 08:50:28;;;;;;;22.40;10.87;;;;;;;10.13;100.00;100692.84;7391983;19;20447;-36
2023/03/18 08:52:59;;;;;;;20.77;10.00;;;;;;;10.13;100.00;100697.09;7395186;19;20427;-37
2023/03/18 08:55:30;;;;;;;21.97;10.30;;;;;;;10.11;100.00;100711.63;7391697;19;20974;-36
2023/03/18 08:58:00;;;;;;;20.10;9.90;;;;;;;10.07;100.00;100720.94;7394793;19;20407;-37
2023/03/18 09:00:30;;;;;;;22.70;10.67;;;;;;;10.08;100.00;100724.38;7391691;19;20821;-36
2023/03/18 09:03:02;;;;;;;24.60;11.20;;;;;;;10.08;100.00;100726.94;7394933;19;20418;-36
2023/03/18 09:05:31;;;;;;;20.33;8.20;;;;;;;10.01;100.00;100736.13;7391633;19;20443;-37
2023/03/18 09:08:02;;;;;;;22.03;10.10;;;;;;;10.03;100.00;100751.66;7393811;19;21015;-36
2023/03/18 09:10:32;;;;;;;22.83;11.63;;;;;;;9.99;100.00;100741.22;7390518;19;20466;-36
2023/03/18 09:13:02;;;;;;;22.43;11.20;;;;;;;9.96;100.00;100750.50;7394782;19;20406;-38
2023/03/18 09:15:31;;;;;;;19.77;11.33;;;;;;;9.98;100.00;100760.09;7390972;19;20534;-36
2023/03/18 09:18:04;;;;;;;27.20;11.93;;;;;;;9.93;100.00;100766.72;7395022;19;20411;-38
2023/03/18 09:20:40;;;;;;;19.23;12.37;;;;;;;9.89;100.00;100781.97;7392309;19;20454;-36
2023/03/18 09:23:11;;;;;;;22.53;13.10;;;;;;;9.84;100.00;100786.91;7390520;19;20491;-36
2023/03/18 09:25:41;;;;;;;23.57;11.87;;;;;;;9.85;100.00;100794.72;7393239;19;20411;-39
2023/03/18 09:28:11;;;;;;;20.40;11.27;;;;;;;9.84;100.00;100803.25;7390381;19;20434;-36
2023/03/18 09:30:41;;;;;;;18.40;10.40;;;;;;;9.82;100.00;100830.66;7391875;19;20428;-37
2023/03/18 09:33:13;;;;;;;21.90;12.10;;;;;;;9.81;100.00;100818.59;7390514;19;20399;-36
2023/03/18 09:35:43;;;;;;;21.23;11.57;;;;;;;9.86;100.00;100827.41;7393332;19;20462;-37
2023/03/18 09:38:15;;;;;;;26.27;12.77;;;;;;;9.91;100.00;100829.31;7389671;19;20403;-36
2023/03/18 09:40:55;;;;;;;27.50;11.70;;;;;;;9.87;100.00;100825.72;7387255;19;20798;-35
2023/03/18 09:43:35;;;;;;;20.43;11.73;;;;;;;9.92;100.00;100831.97;7388945;19;20928;-36
2023/03/18 09:46:09;;;;;;;26.20;12.10;;;;;;;9.93;100.00;100833.72;7389355;19;20439;-36
2023/03/18 09:49:02;;;;;;;24.60;11.70;;;;;;;9.96;100.00;100827.84;7394922;19;20519;-37
2023/03/18 09:51:42;;;;;;;23.77;12.37;;;;;;;10.00;100.00;100835.78;7397698;19;20958;-38
2023/03/18 09:54:14;;;;;;;21.30;11.53;;;;;;;10.06;100.00;100839.44;7395236;19;20415;-37
2023/03/18 09:56:45;;;;;;;26.00;11.97;;;;;;;10.06;100.00;100836.88;7400804;19;20407;-36
2023/03/18 09:59:20;;;;;;;25.50;11.60;;;;;;;10.13;100.00;100832.06;7395185;19;20438;-36
2023/03/18 10:01:53;;;;;;;23.87;12.23;;;;;;;10.16;100.00;100833.00;7397709;19;21057;-36
2023/03/18 10:04:24;;;;;;;24.60;11.70;;;;;;;10.17;100.00;100827.03;7395038;19;20435;-38
2023/03/18 10:07:00;;;;;;;20.20;11.67;;;;;;;10.27;100.00;100829.22;7398289;19;20418;-36
2023/03/18 10:09:31;;;;;;;17.63;10.70;;;;;;;10.28;100.00;100825.81;7394767;19;21097;-36
2023/03/18 10:12:07;;;;;;;22.00;11.73;;;;;;;10.38;100.00;100821.94;7397907;19;20434;-36
2023/03/18 10:14:40;;;;;;;21.30;11.77;;;;;;;10.46;100.00;100814.56;7395642;19;20443;-36
2023/03/18 10:17:16;;;;;;;21.30;12.17;;;;;;;10.62;100.00;100813.53;7399247;19;20777;-39
2023/03/18 10:19:49;;;;;;;19.20;11.60;;;;;;;10.82;100.00;100809.19;7394742;19;20442;-37
2023/03/18 10:22:48;;;;;;;23.70;12.60;;;;;;;11.02;100.00;100796.25;7398556;19;20404;-35
2023/03/18 10:25:22;;;;;;;17.90;9.97;;;;;;;10.96;100.00;100785.66;7395725;19;20443;-36
2023/03/18 10:28:03;;;;;;;19.67;12.30;;;;;;;11.12;100.00;100775.13;7396910;19;20411;-37
2023/03/18 10:30:42;;;;;;;21.60;11.77;;;;;;;11.21;100.00;100757.41;7394940;19;20453;-37
2023/03/18 10:33:16;;;;;;;23.73;9.93;;;;;;;11.23;100.00;100744.53;7396839;19;20403;-37
2023/03/18 10:35:51;;;;;;;17.07;9.73;;;;;;;11.17;100.00;100739.13;7396963;19;20410;-40
2023/03/18 10:38:25;;;;;;;20.63;10.07;;;;;;;11.21;100.00;100744.50;7395415;19;20398;-36
2023/03/18 10:40:55;;;;;;;22.80;9.97;;;;;;;11.24;100.00;100736.00;7397576;19;20435;-36
2023/03/18 10:43:28;;;;;;;16.67;9.10;;;;;;;11.30;100.00;100719.84;7393349;19;20408;-36
2023/03/18 10:46:02;;;;;;;18.73;9.63;;;;;;;11.45;100.00;100715.25;7398436;19;20395;-38
2023/03/18 10:48:34;;;;;;;17.63;9.60;;;;;;;11.66;100.00;100709.13;7394440;19;20407;-39
2023/03/18 10:51:09;;;;;;;17.47;9.37;;;;;;;11.64;100.00;100692.66;7398084;19;20463;-36
2023/03/18 10:53:44;;;;;;;18.00;9.20;;;;;;;11.95;100.00;100678.25;7392644;19;20411;-37
2023/03/18 10:56:16;;;;;;;18.33;8.33;;;;;;;11.98;100.00;100664.56;7398263;19;20422;-37
2023/03/18 10:58:45;;;;;;;16.50;8.93;;;;;;;12.00;100.00;100665.50;7392368;19;20427;-37
2023/03/18 11:01:18;;;;;;;12.90;8.60;;;;;;;12.15;100.00;100650.53;7395843;19;20466;-38
2023/03/18 11:03:53;;;;;;;12.80;7.30;;;;;;;12.18;100.00;100626.47;7394741;19;20413;-36
2023/03/18 11:06:26;;;;;;;17.23;8.37;;;;;;;12.01;100.00;100631.94;7397706;19;20387;-36
2023/03/18 11:09:08;;;;;;;12.80;7.10;;;;;;;12.17;100.00;100635.06;7393836;19;20427;-36
2023/03/18 11:11:38;;;;;;;12.17;7.30;;;;;;;12.28;100.00;100636.31;7396141;19;20463;-36
2023/03/18 11:14:09;;;;;;;11.80;6.73;;;;;;;12.34;100.00;100624.38;7393318;19;20419;-36
2023/03/18 11:16:41;;;;;;;11.07;7.03;;;;;;;12.23;100.00;100614.59;7397132;19;20400;-36
2023/03/18 11:19:26;;;;;;;12.97;7.10;;;;;;;12.27;100.00;100608.66;7392384;19;20439;-36
2023/03/18 11:22:10;;;;;;;13.97;7.10;;;;;;;12.43;100.00;100606.59;7395777;19;20786;-37
2023/03/18 11:24:43;;;;;;;12.60;8.00;;;;;;;12.34;100.00;100585.59;7393852;19;20443;-38
2023/03/18 11:27:29;;;;;;;12.53;6.97;;;;;;;12.11;100.00;100594.34;7397044;19;20392;-36
2023/03/18 11:30:01;;;;;;;17.30;7.90;;;;;;;12.38;100.00;100593.50;7392701;19;20440;-36
2023/03/18 11:32:32;;;;;;;13.30;8.03;;;;;;;12.55;100.00;100583.69;7397233;19;20407;-37
2023/03/18 11:35:04;;;;;;;14.67;8.10;;;;;;;12.72;100.00;100575.53;7394265;19;20431;-36